createdAt,value
2018-11-11T00:02:25.670Z,15.90
2018-11-11T00:04:53.031Z,16.17
2018-11-11T00:07:20.442Z,16.37
2018-11-11T00:09:47.993Z,16.33
2018-11-11T00:12:15.430Z,15.10
2018-11-11T00:14:42.790Z,15.13
2018-11-11T00:17:10.242Z,15.87
2018-11-11T00:19:37.639Z,15.23
2018-11-11T00:22:05.091Z,14.60
2018-11-11T00:24:32.513Z,14.73
2018-11-11T00:26:59.902Z,15.63
2018-11-11T00:29:27.285Z,14.27
2018-11-11T00:31:54.714Z,18.10
2018-11-11T00:34:25.955Z,15.53
2018-11-11T00:36:53.316Z,14.60
2018-11-11T00:39:20.850Z,15.50
2018-11-11T00:41:48.225Z,15.57
2018-11-11T00:44:15.581Z,15.30
2018-11-11T00:46:43.004Z,14.00
2018-11-11T00:49:10.421Z,13.40
2018-11-11T00:51:37.814Z,13.47
2018-11-11T00:54:05.207Z,15.90
2018-11-11T00:56:32.656Z,17.43
2018-11-11T00:59:00.055Z,14.73
2018-11-11T01:01:33.337Z,14.47
2018-11-11T01:04:00.817Z,13.93
2018-11-11T01:06:28.452Z,14.90
2018-11-11T01:08:55.849Z,14.10
2018-11-11T01:11:23.289Z,13.33
2018-11-11T01:13:50.771Z,13.47
2018-11-11T01:16:18.204Z,14.30
2018-11-11T01:18:45.684Z,13.70
2018-11-11T01:21:13.071Z,14.07
2018-11-11T01:23:40.470Z,14.20
2018-11-11T01:26:07.830Z,14.23
2018-11-11T01:28:35.257Z,14.43
2018-11-11T01:31:02.666Z,15.73
2018-11-11T01:33:30.353Z,15.50
2018-11-11T01:35:57.755Z,16.10
2018-11-11T01:38:25.132Z,13.73
2018-11-11T01:40:52.684Z,15.80
2018-11-11T01:43:20.044Z,14.60
2018-11-11T01:45:47.464Z,15.00
2018-11-11T01:48:14.813Z,15.93
2018-11-11T01:50:42.254Z,14.20
2018-11-11T01:53:09.610Z,14.67
2018-11-11T01:55:37.002Z,15.53
2018-11-11T01:58:04.845Z,14.40
2018-11-11T02:00:32.246Z,16.47
2018-11-11T02:02:59.634Z,15.00
2018-11-11T02:05:27.198Z,14.33
2018-11-11T02:07:54.546Z,16.70
2018-11-11T02:10:21.928Z,15.77
2018-11-11T02:12:49.326Z,15.03
2018-11-11T02:15:17.326Z,16.47
2018-11-11T02:17:44.733Z,16.00
2018-11-11T02:20:13.786Z,15.00
2018-11-11T02:22:41.474Z,16.10
2018-11-11T02:25:09.556Z,16.70
2018-11-11T02:27:36.933Z,16.13
2018-11-11T02:30:06.193Z,17.00
2018-11-11T02:32:33.597Z,17.40
2018-11-11T02:35:00.945Z,16.70
2018-11-11T02:37:28.357Z,15.70
2018-11-11T02:39:55.730Z,16.27
2018-11-11T02:42:23.093Z,17.40
2018-11-11T02:44:50.439Z,16.87
2018-11-11T02:47:17.853Z,17.00
2018-11-11T02:49:45.277Z,17.77
2018-11-11T02:52:12.668Z,17.50
2018-11-11T02:54:40.020Z,16.67
2018-11-11T02:57:07.525Z,18.83
2018-11-11T02:59:34.958Z,18.23
2018-11-11T03:02:02.396Z,17.70
2018-11-11T03:04:29.890Z,17.97
2018-11-11T03:06:57.167Z,18.37
2018-11-11T03:09:24.557Z,21.53
2018-11-11T03:11:51.987Z,19.10
2018-11-11T03:14:19.396Z,21.47
2018-11-11T03:16:46.732Z,17.60
2018-11-11T03:19:14.137Z,17.70
2018-11-11T03:21:41.485Z,19.27
2018-11-11T03:24:08.871Z,18.33
2018-11-11T03:26:36.236Z,17.77
2018-11-11T03:29:03.710Z,17.43
2018-11-11T03:31:31.081Z,20.53
2018-11-11T03:33:58.531Z,19.20
2018-11-11T03:36:25.976Z,18.00
2018-11-11T03:38:53.367Z,19.57
2018-11-11T03:41:20.855Z,17.00
2018-11-11T03:43:48.261Z,17.50
2018-11-11T03:46:15.683Z,18.00
2018-11-11T03:48:43.083Z,18.13
2018-11-11T03:51:10.476Z,16.50
2018-11-11T03:53:38.196Z,17.57
2018-11-11T03:56:06.065Z,17.50
2018-11-11T03:58:33.489Z,18.33
2018-11-11T04:01:00.958Z,19.00
2018-11-11T04:03:28.329Z,18.47
2018-11-11T04:05:55.700Z,17.63
2018-11-11T04:08:23.094Z,18.23
2018-11-11T04:10:50.509Z,18.73
2018-11-11T04:13:17.913Z,17.20
2018-11-11T04:15:45.305Z,17.33
2018-11-11T04:18:12.708Z,16.80
2018-11-11T04:20:40.123Z,16.90
2018-11-11T04:23:07.462Z,17.40
2018-11-11T04:25:35.045Z,18.67
2018-11-11T04:28:02.410Z,18.00
2018-11-11T04:30:29.821Z,17.80
2018-11-11T04:32:57.221Z,16.87
2018-11-11T04:35:24.670Z,15.93
2018-11-11T04:37:52.260Z,16.20
2018-11-11T04:40:19.701Z,14.83
2018-11-11T04:42:47.087Z,17.40
2018-11-11T04:45:15.390Z,15.10
2018-11-11T04:47:43.479Z,17.53
2018-11-11T04:50:12.343Z,16.10
2018-11-11T04:52:39.932Z,16.87
2018-11-11T04:55:07.770Z,16.37
2018-11-11T04:57:35.124Z,16.70
2018-11-11T05:00:02.629Z,15.67
2018-11-11T05:02:30.090Z,16.70
2018-11-11T05:04:57.477Z,17.77
2018-11-11T05:07:24.826Z,17.83
2018-11-11T05:09:52.210Z,16.57
2018-11-11T05:12:19.625Z,20.87
2018-11-11T05:14:46.983Z,19.40
2018-11-11T05:17:14.397Z,18.10
2018-11-11T05:19:41.757Z,16.50
2018-11-11T05:22:09.152Z,20.63
2018-11-11T05:24:36.665Z,19.37
2018-11-11T05:27:04.435Z,19.80
2018-11-11T05:29:31.805Z,17.63
2018-11-11T05:31:59.215Z,17.53
2018-11-11T05:34:31.566Z,20.17
2018-11-11T05:36:58.950Z,21.27
2018-11-11T05:39:26.321Z,21.73
2018-11-11T05:41:53.661Z,20.53
2018-11-11T05:44:21.078Z,24.07
2018-11-11T05:46:48.409Z,21.90
2018-11-11T05:49:15.775Z,22.30
2018-11-11T05:51:43.146Z,28.37
2018-11-11T05:54:10.527Z,20.97
2018-11-11T05:56:37.907Z,23.43
2018-11-11T05:59:05.493Z,23.50
2018-11-11T06:01:32.945Z,22.90
2018-11-11T06:04:00.325Z,28.70
2018-11-11T06:06:27.683Z,23.10
2018-11-11T06:08:55.093Z,24.97
2018-11-11T06:11:22.436Z,25.33
2018-11-11T06:13:50.373Z,23.53
2018-11-11T06:16:17.747Z,23.70
2018-11-11T06:18:45.128Z,23.90
2018-11-11T06:21:12.469Z,25.13
2018-11-11T06:23:39.846Z,27.33
2018-11-11T06:26:07.219Z,28.23
2018-11-11T06:28:34.623Z,25.00
2018-11-11T06:31:01.987Z,24.90
2018-11-11T06:33:29.397Z,24.73
2018-11-11T06:35:56.760Z,24.13
2018-11-11T06:38:24.160Z,24.83
2018-11-11T06:40:51.501Z,26.77
2018-11-11T06:43:18.938Z,24.90
2018-11-11T06:45:46.353Z,24.57
2018-11-11T06:48:13.787Z,26.90
2018-11-11T06:50:41.109Z,25.80
2018-11-11T06:53:08.479Z,24.47
2018-11-11T06:55:35.850Z,26.30
2018-11-11T06:58:03.311Z,25.80
2018-11-11T07:00:30.712Z,25.07
2018-11-11T07:03:09.521Z,26.13
2018-11-11T07:05:36.920Z,23.20
2018-11-11T07:08:04.379Z,24.50
2018-11-11T07:10:31.738Z,23.03
2018-11-11T07:12:59.156Z,24.73
2018-11-11T07:15:26.547Z,23.03
2018-11-11T07:17:53.923Z,22.43
2018-11-11T07:20:21.326Z,22.20
2018-11-11T07:22:48.742Z,23.43
2018-11-11T07:25:16.149Z,20.77
2018-11-11T07:27:43.548Z,22.87
2018-11-11T07:30:10.941Z,22.93
2018-11-11T07:32:38.402Z,24.67
2018-11-11T07:35:06.989Z,24.77
2018-11-11T07:37:34.354Z,22.87
2018-11-11T07:40:01.788Z,21.43
2018-11-11T07:42:29.191Z,22.47
2018-11-11T07:44:56.544Z,24.33
2018-11-11T07:47:23.902Z,19.07
2018-11-11T07:49:51.284Z,20.23
2018-11-11T07:52:18.657Z,19.20
2018-11-11T07:54:46.279Z,22.40
2018-11-11T07:57:13.645Z,24.00
2018-11-11T07:59:41.042Z,27.93
2018-11-11T08:02:08.766Z,26.50
2018-11-11T08:04:36.298Z,22.03
2018-11-11T08:07:03.769Z,23.13
2018-11-11T08:09:31.177Z,19.63
2018-11-11T08:12:01.705Z,21.10
2018-11-11T08:14:29.402Z,23.83
2018-11-11T08:16:57.043Z,19.93
2018-11-11T08:19:24.368Z,32.07
2018-11-11T08:21:51.944Z,21.87
2018-11-11T08:24:19.534Z,22.37
2018-11-11T08:26:47.275Z,18.77
2018-11-11T08:29:14.686Z,16.87
2018-11-11T08:31:42.385Z,29.93
2018-11-11T08:34:09.882Z,20.00
2018-11-11T08:36:37.234Z,18.87
2018-11-11T08:39:07.866Z,17.60
2018-11-11T08:41:35.286Z,19.80
2018-11-11T08:44:02.671Z,17.23
2018-11-11T08:46:30.034Z,15.30
2018-11-11T08:48:57.393Z,18.27
2018-11-11T08:51:24.782Z,17.03
2018-11-11T08:53:52.130Z,16.37
2018-11-11T08:56:19.513Z,15.43
2018-11-11T08:58:46.876Z,15.57
2018-11-11T09:01:14.265Z,14.80
2018-11-11T09:03:41.625Z,14.87
2018-11-11T09:06:09.021Z,15.70
2018-11-11T09:08:36.393Z,20.87
2018-11-11T09:11:04.805Z,14.80
2018-11-11T09:13:32.307Z,13.80
2018-11-11T09:15:59.715Z,14.40
2018-11-11T09:18:27.070Z,13.53
2018-11-11T09:20:54.480Z,14.87
2018-11-11T09:23:21.954Z,14.93
2018-11-11T09:25:49.370Z,13.40
2018-11-11T09:28:16.728Z,14.60
2018-11-11T09:30:44.114Z,14.50
2018-11-11T09:33:11.509Z,14.63
2018-11-11T09:35:38.934Z,15.23
2018-11-11T09:38:06.287Z,15.40
2018-11-11T09:40:33.782Z,13.40
2018-11-11T09:43:01.158Z,12.90
2018-11-11T09:45:28.885Z,12.30
2018-11-11T09:47:56.372Z,12.40
2018-11-11T09:50:23.633Z,12.50
2018-11-11T09:52:51.142Z,12.07
2018-11-11T09:55:18.666Z,10.57
2018-11-11T09:57:46.054Z,10.80
2018-11-11T10:00:16.002Z,11.60
2018-11-11T10:02:48.909Z,12.70
2018-11-11T10:05:21.933Z,11.20
2018-11-11T10:07:55.990Z,13.13
2018-11-11T10:11:31.839Z,10.80
2018-11-11T10:14:14.050Z,10.67
2018-11-11T10:16:46.175Z,12.10
2018-11-11T10:19:50.078Z,11.77
2018-11-11T10:22:21.906Z,11.70
2018-11-11T10:25:52.749Z,12.30
2018-11-11T10:28:24.694Z,11.77
2018-11-11T10:31:31.192Z,14.20
2018-11-11T10:34:33.429Z,13.20
2018-11-11T10:37:07.259Z,12.90
2018-11-11T10:39:41.560Z,14.67
2018-11-11T10:42:14.801Z,13.00
2018-11-11T10:44:47.779Z,12.20
2018-11-11T10:47:19.924Z,11.63
2018-11-11T10:49:56.497Z,14.13
2018-11-11T10:52:23.926Z,14.30
2018-11-11T10:54:51.243Z,13.13
2018-11-11T10:57:18.713Z,14.10
2018-11-11T10:59:46.089Z,15.33
2018-11-11T11:02:19.719Z,14.53
2018-11-11T11:04:52.716Z,15.90
2018-11-11T11:07:20.385Z,15.00
2018-11-11T11:09:48.109Z,15.20
2018-11-11T11:12:15.578Z,15.53
2018-11-11T11:14:42.935Z,14.27
2018-11-11T11:17:11.265Z,15.70
2018-11-11T11:19:38.682Z,15.80
2018-11-11T11:22:06.281Z,16.53
2018-11-11T11:24:33.634Z,14.60
2018-11-11T11:27:01.101Z,15.57
2018-11-11T11:29:28.457Z,18.90
2018-11-11T11:31:55.943Z,14.00
2018-11-11T11:34:23.269Z,14.17
2018-11-11T11:36:50.652Z,16.77
2018-11-11T11:39:18.005Z,13.37
2018-11-11T11:41:45.405Z,16.80
2018-11-11T11:44:12.913Z,14.40
2018-11-11T11:46:40.345Z,15.57
2018-11-11T11:49:07.729Z,13.90
2018-11-11T11:51:35.133Z,12.90
2018-11-11T11:54:02.511Z,13.00
2018-11-11T11:56:30.069Z,11.83
2018-11-11T11:58:57.397Z,11.73
2018-11-11T12:01:24.809Z,10.07
2018-11-11T12:03:52.166Z,10.90
2018-11-11T12:06:19.566Z,10.87
2018-11-11T12:08:47.025Z,11.40
2018-11-11T12:11:14.331Z,10.87
2018-11-11T12:13:41.852Z,10.20
2018-11-11T12:16:09.292Z,11.70
2018-11-11T12:18:36.666Z,9.53
2018-11-11T12:21:04.363Z,10.50
2018-11-11T12:23:31.791Z,10.20
2018-11-11T12:25:59.148Z,11.10
2018-11-11T12:28:26.552Z,8.67
2018-11-11T12:30:54.017Z,9.73
2018-11-11T12:33:21.374Z,9.07
2018-11-11T12:35:48.720Z,10.30
2018-11-11T12:38:16.079Z,9.27
2018-11-11T12:40:43.559Z,8.53
2018-11-11T12:43:10.996Z,8.57
2018-11-11T12:45:38.423Z,8.67
2018-11-11T12:48:05.982Z,8.50
2018-11-11T12:50:33.336Z,9.20
2018-11-11T12:53:00.750Z,8.47
2018-11-11T12:55:28.255Z,7.57
2018-11-11T12:57:55.605Z,7.73
2018-11-11T13:00:22.985Z,7.03
2018-11-11T13:02:50.478Z,6.17
2018-11-11T13:05:17.907Z,5.97
2018-11-11T13:07:45.432Z,7.00
2018-11-11T13:10:13.488Z,7.13
2018-11-11T13:12:41.271Z,5.90
2018-11-11T13:15:10.134Z,6.50
2018-11-11T13:17:37.997Z,5.43
2018-11-11T13:20:08.247Z,5.87
2018-11-11T13:22:35.731Z,6.47
2018-11-11T13:25:03.297Z,5.00
2018-11-11T13:27:30.688Z,5.60
2018-11-11T13:29:58.960Z,6.00
2018-11-11T13:32:26.300Z,4.97
2018-11-11T13:34:53.705Z,4.73
2018-11-11T13:37:21.072Z,4.93
2018-11-11T13:39:49.386Z,6.27
2018-11-11T13:42:16.795Z,4.87
2018-11-11T13:44:44.281Z,7.13
2018-11-11T13:47:11.649Z,3.80
2018-11-11T13:49:39.067Z,3.90
2018-11-11T13:52:06.470Z,4.17
2018-11-11T13:54:33.844Z,3.90
2018-11-11T13:57:01.272Z,4.23
2018-11-11T13:59:28.648Z,3.50
2018-11-11T14:01:56.109Z,3.20
2018-11-11T14:04:23.504Z,4.47
2018-11-11T14:06:51.020Z,3.70
2018-11-11T14:09:18.417Z,3.40
2018-11-11T14:11:45.810Z,3.33
2018-11-11T14:14:13.210Z,4.23
2018-11-11T14:16:40.545Z,4.10
2018-11-11T14:19:08.354Z,3.80
2018-11-11T14:21:35.536Z,3.57
2018-11-11T14:24:03.408Z,4.50
2018-11-11T14:26:31.155Z,4.20
2018-11-11T14:28:58.447Z,3.13
2018-11-11T14:31:25.858Z,3.70
2018-11-11T14:33:53.362Z,3.73
2018-11-11T14:36:21.006Z,4.03
2018-11-11T14:38:48.436Z,3.60
2018-11-11T14:41:15.834Z,3.70
2018-11-11T14:43:43.246Z,4.20
2018-11-11T14:46:10.688Z,3.53
2018-11-11T14:48:38.041Z,3.40
2018-11-11T14:51:05.605Z,3.40
2018-11-11T14:53:32.958Z,3.63
2018-11-11T14:56:00.433Z,4.10
2018-11-11T14:58:28.074Z,3.90
2018-11-11T15:00:55.324Z,3.80
2018-11-11T15:03:22.679Z,5.40
2018-11-11T15:05:50.085Z,4.87
2018-11-11T15:08:17.489Z,3.60
2018-11-11T15:10:44.907Z,5.23
2018-11-11T15:13:13.434Z,4.30
2018-11-11T15:15:40.750Z,3.20
2018-11-11T15:18:08.504Z,3.87
2018-11-11T15:20:36.465Z,3.73
2018-11-11T15:23:03.761Z,3.37
2018-11-11T15:25:31.639Z,5.93
2018-11-11T15:27:59.105Z,3.60
2018-11-11T15:30:27.957Z,3.47
2018-11-11T15:32:55.872Z,4.23
2018-11-11T15:35:23.364Z,3.80
2018-11-11T15:37:50.858Z,3.67
2018-11-11T15:40:19.786Z,3.90
2018-11-11T15:42:47.235Z,4.40
2018-11-11T15:45:18.478Z,4.23
2018-11-11T15:47:45.876Z,3.73
2018-11-11T15:50:16.179Z,3.30
2018-11-11T15:52:47.958Z,3.63
2018-11-11T15:55:16.200Z,3.83
2018-11-11T15:57:43.621Z,3.60
2018-11-11T16:00:13.788Z,3.83
2018-11-11T16:02:41.452Z,3.70
2018-11-11T16:05:09.693Z,4.10
2018-11-11T16:07:37.602Z,3.97
2018-11-11T16:10:06.074Z,5.30
2018-11-11T16:12:33.537Z,5.83
2018-11-11T16:15:00.908Z,4.40
2018-11-11T16:17:28.302Z,4.40
2018-11-11T16:19:55.782Z,4.63
2018-11-11T16:22:23.363Z,4.30
2018-11-11T16:24:50.727Z,4.03
2018-11-11T16:27:18.156Z,4.00
2018-11-11T16:29:45.550Z,4.80
2018-11-11T16:32:12.993Z,4.40
2018-11-11T16:34:40.357Z,4.30
2018-11-11T16:37:07.812Z,5.17
2018-11-11T16:39:35.221Z,4.47
2018-11-11T16:42:02.615Z,3.67
2018-11-11T16:44:30.070Z,4.17
2018-11-11T16:46:57.421Z,4.70
2018-11-11T16:49:24.799Z,4.93
2018-11-11T16:51:52.208Z,5.20
2018-11-11T16:54:19.720Z,4.70
2018-11-11T16:56:47.096Z,4.90
2018-11-11T16:59:14.553Z,4.00
2018-11-11T17:01:42.011Z,4.17
2018-11-11T17:04:09.432Z,4.10
2018-11-11T17:06:36.789Z,3.97
2018-11-11T17:09:08.276Z,4.07
2018-11-11T17:11:35.706Z,3.70
2018-11-11T17:14:03.164Z,4.73
2018-11-11T17:16:30.571Z,4.40
2018-11-11T17:18:57.966Z,4.00
2018-11-11T17:21:25.426Z,6.80
2018-11-11T17:23:52.722Z,4.43
2018-11-11T17:26:20.117Z,4.33
2018-11-11T17:28:47.485Z,4.50
2018-11-11T17:31:14.905Z,3.77
2018-11-11T17:33:42.345Z,7.17
2018-11-11T17:36:09.750Z,5.13
2018-11-11T17:38:37.142Z,4.33
2018-11-11T17:41:04.604Z,4.03
2018-11-11T17:43:31.969Z,4.50
2018-11-11T17:45:59.309Z,4.83
2018-11-11T17:48:26.730Z,4.07
2018-11-11T17:50:54.125Z,4.03
2018-11-11T17:53:21.521Z,6.37
2018-11-11T17:55:49.086Z,4.23
2018-11-11T17:58:16.425Z,4.33
2018-11-11T18:00:43.846Z,4.73
2018-11-11T18:03:11.404Z,4.43
2018-11-11T18:05:38.762Z,3.80
2018-11-11T18:08:06.259Z,6.43
2018-11-11T18:10:33.704Z,4.37
2018-11-11T18:13:01.050Z,4.50
2018-11-11T18:15:29.637Z,4.30
2018-11-11T18:17:57.070Z,4.80
2018-11-11T18:20:26.921Z,3.93
2018-11-11T18:22:55.129Z,4.60
2018-11-11T18:25:22.572Z,5.37
2018-11-11T18:27:49.978Z,5.43
2018-11-11T18:30:20.876Z,3.77
2018-11-11T18:32:48.482Z,4.93
2018-11-11T18:35:16.709Z,5.93
2018-11-11T18:37:44.131Z,4.27
2018-11-11T18:40:13.062Z,4.90
2018-11-11T18:42:40.331Z,7.43
2018-11-11T18:45:11.033Z,4.33
2018-11-11T18:47:38.586Z,4.33
2018-11-11T18:50:09.125Z,7.37
2018-11-11T18:52:36.530Z,4.93
2018-11-11T18:55:04.257Z,4.33
2018-11-11T18:57:31.846Z,4.30
2018-11-11T18:59:59.288Z,4.90
2018-11-11T19:02:27.134Z,6.23
2018-11-11T19:04:54.883Z,4.63
2018-11-11T19:07:22.288Z,4.57
2018-11-11T19:09:49.960Z,5.90
2018-11-11T19:12:17.662Z,4.37
2018-11-11T19:14:45.123Z,4.13
2018-11-11T19:17:12.631Z,4.20
2018-11-11T19:19:39.993Z,4.13
2018-11-11T19:22:07.500Z,4.60
2018-11-11T19:24:35.123Z,9.33
2018-11-11T19:27:02.378Z,6.27
2018-11-11T19:29:29.764Z,4.37
2018-11-11T19:31:57.557Z,4.80
2018-11-11T19:34:24.930Z,5.45
2018-11-11T19:36:52.413Z,5.60
2018-11-11T19:39:19.774Z,4.40
2018-11-11T19:41:47.328Z,6.03
2018-11-11T19:44:14.680Z,4.40
2018-11-11T19:46:42.073Z,5.03
2018-11-11T19:49:09.556Z,3.63
2018-11-11T19:51:36.958Z,4.87
2018-11-11T19:54:04.716Z,4.17
2018-11-11T19:56:32.401Z,4.83
2018-11-11T19:59:00.220Z,5.67
2018-11-11T20:01:28.047Z,4.10
2018-11-11T20:03:55.595Z,4.80
2018-11-11T20:06:23.465Z,6.17
2018-11-11T20:08:50.880Z,4.47
2018-11-11T20:11:18.516Z,6.40
2018-11-11T20:13:46.102Z,4.10
2018-11-11T20:16:13.695Z,6.77
2018-11-11T20:18:41.566Z,4.37
2018-11-11T20:21:09.264Z,4.90
2018-11-11T20:23:36.806Z,4.17
2018-11-11T20:26:04.546Z,5.80
2018-11-11T20:28:32.396Z,6.90
2018-11-11T20:31:00.047Z,4.40
2018-11-11T20:33:27.589Z,4.17
2018-11-11T20:35:55.204Z,4.60
2018-11-11T20:38:22.829Z,4.30
2018-11-11T20:40:50.471Z,4.87
2018-11-11T20:43:17.863Z,4.80
2018-11-11T20:45:45.350Z,3.93
2018-11-11T20:48:12.743Z,4.13
2018-11-11T20:50:40.194Z,4.00
2018-11-11T20:53:07.600Z,3.60
2018-11-11T20:55:35.127Z,5.33
2018-11-11T20:58:02.849Z,5.60
2018-11-11T21:00:31.251Z,4.90
2018-11-11T21:02:58.745Z,4.53
2018-11-11T21:05:26.882Z,5.03
2018-11-11T21:07:54.943Z,3.93
2018-11-11T21:10:24.041Z,5.20
2018-11-11T21:12:52.168Z,7.50
2018-11-11T21:15:21.219Z,8.50
2018-11-11T21:17:49.027Z,6.23
2018-11-11T21:20:18.021Z,4.70
2018-11-11T21:22:45.430Z,5.30
2018-11-11T21:25:13.014Z,4.50
2018-11-11T21:27:41.266Z,4.70
2018-11-11T21:30:11.401Z,4.33
2018-11-11T21:32:38.968Z,5.13
2018-11-11T21:35:06.649Z,3.83
2018-11-11T21:37:34.091Z,4.50
2018-11-11T21:40:01.493Z,5.27
2018-11-11T21:42:29.616Z,3.93
2018-11-11T21:44:57.081Z,3.53
2018-11-11T21:47:24.434Z,4.07
2018-11-11T21:49:51.929Z,5.60
2018-11-11T21:52:19.347Z,4.57
2018-11-11T21:54:46.805Z,4.30
2018-11-11T21:57:14.198Z,4.57
2018-11-11T21:59:41.568Z,3.67
2018-11-11T22:02:09.082Z,7.53
2018-11-11T22:04:36.409Z,4.03
2018-11-11T22:07:04.164Z,3.80
2018-11-11T22:09:31.768Z,5.60
2018-11-11T22:11:59.051Z,4.17
2018-11-11T22:14:26.502Z,4.20
2018-11-11T22:16:53.968Z,6.97
2018-11-11T22:19:21.312Z,6.07
2018-11-11T22:21:48.843Z,5.00
2018-11-11T22:24:16.259Z,5.00
2018-11-11T22:26:43.649Z,5.33
2018-11-11T22:29:11.141Z,5.43
2018-11-11T22:31:38.536Z,5.30
2018-11-11T22:34:05.910Z,8.80
2018-11-11T22:36:33.290Z,8.23
2018-11-11T22:39:00.695Z,6.90
2018-11-11T22:41:28.099Z,5.77
2018-11-11T22:43:55.459Z,6.20
2018-11-11T22:46:22.846Z,10.53
2018-11-11T22:48:50.248Z,7.17
2018-11-11T22:51:17.600Z,6.97
2018-11-11T22:53:45.028Z,6.10
2018-11-11T22:56:12.405Z,7.40
2018-11-11T22:58:39.767Z,8.47
2018-11-11T23:01:13.022Z,6.70
2018-11-11T23:03:40.350Z,6.30
2018-11-11T23:06:07.838Z,5.40
2018-11-11T23:08:35.234Z,8.53
2018-11-11T23:11:02.722Z,8.47
2018-11-11T23:13:30.138Z,6.10
2018-11-11T23:15:57.531Z,7.00
2018-11-11T23:18:24.993Z,8.43
2018-11-11T23:20:52.409Z,5.50
2018-11-11T23:23:19.865Z,8.30
2018-11-11T23:25:47.221Z,7.50
2018-11-11T23:28:14.694Z,9.50
2018-11-11T23:30:42.093Z,6.87
2018-11-11T23:33:09.612Z,5.87
2018-11-11T23:35:37.020Z,6.07
2018-11-11T23:38:04.746Z,6.87
2018-11-11T23:40:32.258Z,5.70
2018-11-11T23:42:59.604Z,6.63
2018-11-11T23:45:30.537Z,7.50
2018-11-11T23:47:57.937Z,7.30
2018-11-11T23:50:25.313Z,6.63
2018-11-11T23:52:52.695Z,7.17
2018-11-11T23:55:20.107Z,7.63
2018-11-11T23:57:47.685Z,8.43
